Terminal Aerodrome Forecast
Issued by NWS

Home | Current Version | Previous Version | Text Only | Print | Product List | Glossary On
Versions: 1 2 3 4 5 6 7 8 9 10 11 12
354
FTUS44 KBMX 041720
TAFEET
TAF
KEET 041720Z 0418/0518 08006KT 6SM -RA BR OVC006
     FM050000 VRB02KT 2SM BR OVC005
     FM050600 VRB02KT 3SM -RA BR OVC004
     FM051500 05004KT 5SM BR OVC005=

USA.gov is the U.S. government's official web portal to all federal, state and local government web resources and services.